createdAt,value
2023-01-17T00:00:44.144Z,13.38
2023-01-17T00:01:47.295Z,13.38
2023-01-17T00:02:50.501Z,13.32
2023-01-17T00:04:10.751Z,14.30
2023-01-17T00:05:31.127Z,14.00
2023-01-17T00:06:51.680Z,11.77
2023-01-17T00:08:11.880Z,13.18
2023-01-17T00:09:33.594Z,13.27
2023-01-17T00:10:40.443Z,12.90
2023-01-17T00:11:42.372Z,13.75
2023-01-17T00:12:47.740Z,12.45
2023-01-17T00:13:49.945Z,13.65
2023-01-17T00:14:54.031Z,20.10
2023-01-17T00:15:56.858Z,20.55
2023-01-17T00:17:01.171Z,22.35
2023-01-17T00:18:03.958Z,22.65
2023-01-17T00:19:24.541Z,22.05
2023-01-17T00:20:47.394Z,18.63
2023-01-17T00:22:07.627Z,35.25
2023-01-17T00:23:32.206Z,33.55
2023-01-17T00:24:53.064Z,20.92
2023-01-17T00:26:04.835Z,17.52
2023-01-17T00:27:13.115Z,17.33
2023-01-17T00:28:15.330Z,17.60
2023-01-17T00:29:17.050Z,16.90
2023-01-17T00:30:19.361Z,18.08
2023-01-17T00:31:21.162Z,16.98
2023-01-17T00:32:24.320Z,17.73
2023-01-17T00:33:26.432Z,18.90
2023-01-17T00:34:28.085Z,16.85
2023-01-17T00:35:31.263Z,16.95
2023-01-17T00:36:33.174Z,17.50
2023-01-17T00:37:35.012Z,17.67
2023-01-17T00:38:38.140Z,17.15
2023-01-17T00:39:39.922Z,16.60
2023-01-17T00:40:42.954Z,16.90
2023-01-17T00:41:44.672Z,17.10
2023-01-17T00:42:47.547Z,17.00
2023-01-17T00:44:07.853Z,18.35
2023-01-17T00:45:28.614Z,18.95
2023-01-17T00:46:49.273Z,20.08
2023-01-17T00:48:10.892Z,21.00
2023-01-17T00:49:31.331Z,15.52
2023-01-17T00:50:51.957Z,15.70
2023-01-17T00:52:12.763Z,16.40
2023-01-17T00:53:33.050Z,17.10
2023-01-17T00:54:53.368Z,13.68
2023-01-17T00:56:13.662Z,13.98
2023-01-17T00:57:33.875Z,16.27
2023-01-17T00:58:54.433Z,16.45
2023-01-17T01:00:14.927Z,14.85
2023-01-17T01:01:35.570Z,14.20
2023-01-17T01:02:56.676Z,14.75
2023-01-17T01:04:18.168Z,15.82
2023-01-17T01:05:38.986Z,13.90
2023-01-17T01:06:59.193Z,14.48
2023-01-17T01:08:19.805Z,13.73
2023-01-17T01:09:40.057Z,14.35
2023-01-17T01:11:00.439Z,14.48
2023-01-17T01:12:20.650Z,13.30
2023-01-17T01:13:43.481Z,13.27
2023-01-17T01:15:04.003Z,13.65
2023-01-17T01:16:43.024Z,13.10
2023-01-17T01:18:03.147Z,14.90
2023-01-17T01:19:24.638Z,14.25
2023-01-17T01:20:44.923Z,15.57
2023-01-17T01:22:04.952Z,13.77
2023-01-17T01:23:25.135Z,13.55
2023-01-17T01:24:45.407Z,15.45
2023-01-17T01:26:06.360Z,15.63
2023-01-17T01:27:26.577Z,14.68
2023-01-17T01:28:46.993Z,16.33
2023-01-17T01:30:07.418Z,14.80
2023-01-17T01:31:27.825Z,15.02
2023-01-17T01:32:51.007Z,14.07
2023-01-17T01:33:54.557Z,14.63
2023-01-17T01:34:57.701Z,15.93
2023-01-17T01:36:00.457Z,15.98
2023-01-17T01:37:02.554Z,15.63
2023-01-17T01:38:05.324Z,16.52
2023-01-17T01:39:08.380Z,17.42
2023-01-17T01:40:11.516Z,16.55
2023-01-17T01:41:14.416Z,16.50
2023-01-17T01:42:17.144Z,16.85
2023-01-17T01:43:22.412Z,16.13
2023-01-17T01:44:43.876Z,16.77
2023-01-17T01:45:49.954Z,16.58
2023-01-17T01:46:51.905Z,16.98
2023-01-17T01:47:56.443Z,16.88
2023-01-17T01:49:01.598Z,17.80
2023-01-17T01:50:08.472Z,16.67
2023-01-17T01:51:13.375Z,17.83
2023-01-17T01:52:15.932Z,17.77
2023-01-17T01:53:19.837Z,17.42
2023-01-17T01:54:24.507Z,16.98
2023-01-17T01:55:31.076Z,18.45
2023-01-17T01:56:33.636Z,17.38
2023-01-17T01:57:41.444Z,17.02
2023-01-17T01:58:47.089Z,16.42
2023-01-17T01:59:53.084Z,17.33
2023-01-17T02:00:54.889Z,17.02
2023-01-17T02:01:58.175Z,17.73
2023-01-17T02:03:04.530Z,17.77
2023-01-17T02:04:10.000Z,17.00
2023-01-17T02:05:13.863Z,17.35
2023-01-17T02:06:27.157Z,17.55
2023-01-17T02:07:32.823Z,18.67
2023-01-17T02:08:35.786Z,18.80
2023-01-17T02:09:37.744Z,18.00
2023-01-17T02:10:41.809Z,18.17
2023-01-17T02:11:46.775Z,16.52
2023-01-17T02:12:49.529Z,18.60
2023-01-17T02:13:52.315Z,17.77
2023-01-17T02:14:54.128Z,18.25
2023-01-17T02:16:02.359Z,18.55
2023-01-17T02:17:12.518Z,16.80
2023-01-17T02:18:22.469Z,17.48
2023-01-17T02:19:38.930Z,16.63
2023-01-17T02:20:58.867Z,17.50
2023-01-17T02:22:15.407Z,16.38
2023-01-17T02:23:48.043Z,16.08
2023-01-17T02:25:09.647Z,15.40
2023-01-17T02:26:28.891Z,15.52
2023-01-17T02:27:40.512Z,16.98
2023-01-17T02:28:56.125Z,17.35
2023-01-17T02:30:24.773Z,17.30
2023-01-17T02:31:28.085Z,17.83
2023-01-17T02:32:51.585Z,19.33
2023-01-17T02:33:58.858Z,15.43
2023-01-17T02:35:03.873Z,15.35
2023-01-17T02:36:10.567Z,15.30
2023-01-17T02:37:19.312Z,15.75
2023-01-17T02:38:31.637Z,17.52
2023-01-17T02:39:38.545Z,18.55
2023-01-17T02:40:43.446Z,17.75
2023-01-17T02:41:48.819Z,16.58
2023-01-17T02:42:55.289Z,17.35
2023-01-17T02:43:58.568Z,17.98
2023-01-17T02:45:02.552Z,17.38
2023-01-17T02:46:09.575Z,14.30
2023-01-17T02:47:23.159Z,16.63
2023-01-17T02:48:29.628Z,18.23
2023-01-17T02:49:32.145Z,17.48
2023-01-17T02:50:59.950Z,20.00
2023-01-17T02:52:13.470Z,16.27
2023-01-17T02:53:27.868Z,19.50
2023-01-17T02:54:54.072Z,21.42
2023-01-17T02:56:25.843Z,16.70
2023-01-17T02:57:45.401Z,17.27
2023-01-17T02:59:01.671Z,18.33
2023-01-17T03:00:09.523Z,18.92
2023-01-17T03:01:20.990Z,17.20
2023-01-17T03:02:27.013Z,20.08
2023-01-17T03:03:33.687Z,19.10
2023-01-17T03:04:38.868Z,21.20
2023-01-17T03:05:43.270Z,19.55
2023-01-17T03:06:49.664Z,18.65
2023-01-17T03:07:51.725Z,20.35
2023-01-17T03:08:55.089Z,20.77
2023-01-17T03:10:00.027Z,20.35
2023-01-17T03:11:03.178Z,19.88
2023-01-17T03:12:05.849Z,18.25
2023-01-17T03:13:09.023Z,20.77
2023-01-17T03:14:11.108Z,22.08
2023-01-17T03:15:17.450Z,18.63
2023-01-17T03:16:23.892Z,19.73
2023-01-17T03:17:30.963Z,23.95
2023-01-17T03:18:32.770Z,20.52
2023-01-17T03:19:54.099Z,18.40
2023-01-17T03:20:57.219Z,19.27
2023-01-17T03:21:59.019Z,20.33
2023-01-17T03:23:02.304Z,19.65
2023-01-17T03:24:05.525Z,20.38
2023-01-17T03:25:08.336Z,21.63
2023-01-17T03:26:11.183Z,22.65
2023-01-17T03:27:13.347Z,23.70
2023-01-17T03:28:16.220Z,25.27
2023-01-17T03:29:18.155Z,25.30
2023-01-17T03:30:22.898Z,24.50
2023-01-17T03:31:26.332Z,25.42
2023-01-17T03:32:29.899Z,26.27
2023-01-17T03:33:31.711Z,27.10
2023-01-17T03:34:34.547Z,25.80
2023-01-17T03:35:36.818Z,25.08
2023-01-17T03:36:39.866Z,23.75
2023-01-17T03:37:41.824Z,22.88
2023-01-17T03:38:44.735Z,22.13
2023-01-17T03:39:46.505Z,22.48
2023-01-17T03:40:49.214Z,25.63
2023-01-17T03:41:51.015Z,25.98
2023-01-17T03:42:54.559Z,27.52
2023-01-17T03:43:56.524Z,26.80
2023-01-17T03:44:59.387Z,26.17
2023-01-17T03:46:05.447Z,25.80
2023-01-17T03:47:11.928Z,27.83
2023-01-17T03:48:14.256Z,26.02
2023-01-17T03:49:17.170Z,26.17
2023-01-17T03:50:18.917Z,26.77
2023-01-17T03:51:23.603Z,27.52
2023-01-17T03:52:25.392Z,28.02
2023-01-17T03:53:28.322Z,27.30
2023-01-17T03:54:30.262Z,27.88
2023-01-17T03:55:33.085Z,26.38
2023-01-17T03:56:34.906Z,27.77
2023-01-17T03:57:38.048Z,27.40
2023-01-17T03:58:39.840Z,29.38
2023-01-17T03:59:42.798Z,29.15
2023-01-17T04:00:45.086Z,28.85
2023-01-17T04:01:48.121Z,28.75
2023-01-17T04:02:51.498Z,28.20
2023-01-17T04:03:55.357Z,29.45
2023-01-17T04:04:57.171Z,30.52
2023-01-17T04:06:00.257Z,28.45
2023-01-17T04:07:22.880Z,27.52
2023-01-17T04:08:26.810Z,29.15
2023-01-17T04:09:33.928Z,29.02
2023-01-17T04:10:35.710Z,26.50
2023-01-17T04:11:39.545Z,27.88
2023-01-17T04:12:41.609Z,28.95
2023-01-17T04:13:44.471Z,28.42
2023-01-17T04:14:47.059Z,27.58
2023-01-17T04:15:51.192Z,28.60
2023-01-17T04:16:53.090Z,26.65
2023-01-17T04:17:57.639Z,26.92
2023-01-17T04:18:59.454Z,26.98
2023-01-17T04:20:02.249Z,27.17
2023-01-17T04:21:04.549Z,27.08
2023-01-17T04:22:07.401Z,25.35
2023-01-17T04:23:09.212Z,25.40
2023-01-17T04:24:12.044Z,24.08
2023-01-17T04:25:13.937Z,24.02
2023-01-17T04:26:16.945Z,25.50
2023-01-17T04:27:19.036Z,22.48
2023-01-17T04:28:22.074Z,23.58
2023-01-17T04:29:23.987Z,23.33
2023-01-17T04:30:27.975Z,23.20
2023-01-17T04:31:30.120Z,23.85
2023-01-17T04:32:32.871Z,24.77
2023-01-17T04:33:36.544Z,23.50
2023-01-17T04:34:39.440Z,26.42
2023-01-17T04:35:41.436Z,25.52
2023-01-17T04:36:44.734Z,24.67
2023-01-17T04:37:46.640Z,26.98
2023-01-17T04:38:49.567Z,26.83
2023-01-17T04:39:51.573Z,25.50
2023-01-17T04:40:54.781Z,26.42
2023-01-17T04:41:56.634Z,26.05
2023-01-17T04:43:00.824Z,25.48
2023-01-17T04:44:02.694Z,24.65
2023-01-17T04:45:06.472Z,24.40
2023-01-17T04:46:11.020Z,22.27
2023-01-17T04:47:13.829Z,24.92
2023-01-17T04:48:15.599Z,23.67
2023-01-17T04:49:19.895Z,23.90
2023-01-17T04:50:21.691Z,26.63
2023-01-17T04:51:24.751Z,24.45
2023-01-17T04:52:26.972Z,29.52
2023-01-17T04:53:30.086Z,29.67
2023-01-17T04:54:32.974Z,26.50
2023-01-17T04:55:34.976Z,36.30
2023-01-17T04:56:37.799Z,33.67
2023-01-17T04:57:42.148Z,32.95
2023-01-17T04:58:45.332Z,30.30
2023-01-17T04:59:47.225Z,32.35
2023-01-17T05:00:51.048Z,36.80
2023-01-17T05:01:54.245Z,30.15
2023-01-17T05:02:56.058Z,29.08
2023-01-17T05:04:00.136Z,33.10
2023-01-17T05:05:03.708Z,30.98
2023-01-17T05:06:06.801Z,28.88
2023-01-17T05:07:08.745Z,34.83
2023-01-17T05:08:11.575Z,35.75
2023-01-17T05:09:14.531Z,40.58
2023-01-17T05:10:17.126Z,39.85
2023-01-17T05:11:19.917Z,41.85
2023-01-17T05:12:22.364Z,40.25
2023-01-17T05:13:25.312Z,41.00
2023-01-17T05:14:27.168Z,50.88
2023-01-17T05:15:30.450Z,46.30
2023-01-17T05:16:32.231Z,42.63
2023-01-17T05:17:35.456Z,43.58
2023-01-17T05:18:37.702Z,32.88
2023-01-17T05:19:40.729Z,28.33
2023-01-17T05:20:44.379Z,27.23
2023-01-17T05:21:49.147Z,27.55
2023-01-17T05:22:55.462Z,27.67
2023-01-17T05:23:59.190Z,26.10
2023-01-17T05:25:00.986Z,26.65
2023-01-17T05:26:03.706Z,26.85
2023-01-17T05:27:05.492Z,27.20
2023-01-17T05:28:09.027Z,27.45
2023-01-17T05:29:11.166Z,27.00
2023-01-17T05:30:14.565Z,26.15
2023-01-17T05:31:17.584Z,26.02
2023-01-17T05:32:23.275Z,26.45
2023-01-17T05:33:25.187Z,28.20
2023-01-17T05:34:27.960Z,29.35
2023-01-17T05:35:32.504Z,50.20
2023-01-17T05:36:37.654Z,56.13
2023-01-17T05:37:39.520Z,44.03
2023-01-17T05:38:44.141Z,26.63
2023-01-17T05:39:46.754Z,27.25
2023-01-17T05:40:49.501Z,26.77
2023-01-17T05:41:52.224Z,34.60
2023-01-17T05:42:55.737Z,41.63
2023-01-17T05:43:58.571Z,42.92
2023-01-17T05:45:00.333Z,47.50
2023-01-17T05:46:03.163Z,47.92
2023-01-17T05:47:04.956Z,40.95
2023-01-17T05:48:07.847Z,35.70
2023-01-17T05:49:09.965Z,31.98
2023-01-17T05:50:18.375Z,31.83
2023-01-17T05:51:21.099Z,36.35
2023-01-17T05:52:24.348Z,39.17
2023-01-17T05:53:27.086Z,37.03
2023-01-17T05:54:28.926Z,38.17
2023-01-17T05:55:32.561Z,30.67
2023-01-17T05:56:34.416Z,26.60
2023-01-17T05:57:37.227Z,27.50
2023-01-17T05:58:40.424Z,32.55
2023-01-17T05:59:42.232Z,50.63
2023-01-17T06:00:45.358Z,43.40
2023-01-17T06:01:47.433Z,40.08
2023-01-17T06:02:50.424Z,38.60
2023-01-17T06:03:52.219Z,36.65
2023-01-17T06:04:55.658Z,33.33
2023-01-17T06:05:57.482Z,33.95
2023-01-17T06:07:00.231Z,33.45
2023-01-17T06:08:04.583Z,64.38
2023-01-17T06:09:06.345Z,61.65
2023-01-17T06:10:14.366Z,34.92
2023-01-17T06:11:16.244Z,38.35
2023-01-17T06:12:20.095Z,36.72
2023-01-17T06:13:23.288Z,39.33
2023-01-17T06:14:26.133Z,38.50
2023-01-17T06:15:27.923Z,44.70
2023-01-17T06:16:31.218Z,46.00
2023-01-17T06:17:33.034Z,48.97
2023-01-17T06:18:35.773Z,48.92
2023-01-17T06:19:37.506Z,49.38
2023-01-17T06:20:41.227Z,48.45
2023-01-17T06:21:43.005Z,47.53
2023-01-17T06:22:45.806Z,55.08
2023-01-17T06:23:48.966Z,57.33
2023-01-17T06:24:51.724Z,53.58
2023-01-17T06:25:54.757Z,56.15
2023-01-17T06:26:57.149Z,57.63
2023-01-17T06:27:59.956Z,58.28
2023-01-17T06:29:01.776Z,63.65
2023-01-17T06:30:05.297Z,52.75
2023-01-17T06:31:08.072Z,47.28
2023-01-17T06:32:10.894Z,49.45
2023-01-17T06:33:13.144Z,60.58
2023-01-17T06:34:15.924Z,56.22
2023-01-17T06:35:17.659Z,46.95
2023-01-17T06:36:20.536Z,48.42
2023-01-17T06:37:22.300Z,42.25
2023-01-17T06:38:25.007Z,42.45
2023-01-17T06:39:28.193Z,42.60
2023-01-17T06:40:31.412Z,44.58
2023-01-17T06:41:33.436Z,47.67
2023-01-17T06:42:36.334Z,44.05
2023-01-17T06:43:38.137Z,44.28
2023-01-17T06:44:40.956Z,42.50
2023-01-17T06:45:42.867Z,45.90
2023-01-17T06:46:47.661Z,42.80
2023-01-17T06:47:49.464Z,41.70
2023-01-17T06:48:52.342Z,47.80
2023-01-17T06:49:54.115Z,45.35
2023-01-17T06:50:58.852Z,43.65
2023-01-17T06:52:02.244Z,50.08
2023-01-17T06:53:05.683Z,51.28
2023-01-17T06:54:10.066Z,53.63
2023-01-17T06:55:13.509Z,66.93
2023-01-17T06:56:16.629Z,75.00
2023-01-17T06:57:18.411Z,68.72
2023-01-17T06:58:21.184Z,79.10
2023-01-17T06:59:22.925Z,64.57
2023-01-17T07:00:26.035Z,47.90
2023-01-17T07:01:28.068Z,52.78
2023-01-17T07:02:30.974Z,60.15
2023-01-17T07:03:33.197Z,62.05
2023-01-17T07:04:35.969Z,69.05
2023-01-17T07:05:37.744Z,71.88
2023-01-17T07:06:40.668Z,66.30
2023-01-17T07:07:43.544Z,87.90
2023-01-17T07:08:47.425Z,95.55
2023-01-17T07:09:49.217Z,98.22
2023-01-17T07:10:59.190Z,98.35
2023-01-17T07:12:02.069Z,94.43
2023-01-17T07:13:03.850Z,91.47
2023-01-17T07:14:06.642Z,79.05
2023-01-17T07:15:09.844Z,87.38
2023-01-17T07:16:12.583Z,77.28
2023-01-17T07:17:15.418Z,74.57
2023-01-17T07:18:20.619Z,66.57
2023-01-17T07:19:23.495Z,69.72
2023-01-17T07:20:25.425Z,75.15
2023-01-17T07:21:28.287Z,75.30
2023-01-17T07:22:30.099Z,84.43
2023-01-17T07:23:33.229Z,95.85
2023-01-17T07:24:37.389Z,97.75
2023-01-17T07:25:40.146Z,99.65
2023-01-17T07:26:44.299Z,91.72
2023-01-17T07:27:46.309Z,90.75
2023-01-17T07:28:49.125Z,84.05
2023-01-17T07:29:54.069Z,82.03
2023-01-17T07:30:57.367Z,81.30
2023-01-17T07:32:00.157Z,77.20
2023-01-17T07:33:02.198Z,70.22
2023-01-17T07:34:05.190Z,82.25
2023-01-17T07:35:07.625Z,85.43
2023-01-17T07:36:11.430Z,61.67
2023-01-17T07:37:15.207Z,43.25
2023-01-17T07:38:19.363Z,43.88
2023-01-17T07:39:22.769Z,36.45
2023-01-17T07:40:25.714Z,38.47
2023-01-17T07:41:28.490Z,34.28
2023-01-17T07:42:32.678Z,34.15
2023-01-17T07:43:35.534Z,32.83
2023-01-17T07:44:41.328Z,40.55
2023-01-17T07:45:44.042Z,39.55
2023-01-17T07:46:46.816Z,43.03
2023-01-17T07:47:49.981Z,40.17
2023-01-17T07:48:52.842Z,38.28
2023-01-17T07:49:55.206Z,41.95
2023-01-17T07:50:59.229Z,41.50
2023-01-17T07:52:01.898Z,43.42
2023-01-17T07:53:05.059Z,45.13
2023-01-17T07:54:07.760Z,44.85
2023-01-17T07:55:11.216Z,44.45
2023-01-17T07:56:13.164Z,40.20
2023-01-17T07:57:15.921Z,42.78
2023-01-17T07:58:20.218Z,37.90
2023-01-17T07:59:22.046Z,36.00
2023-01-17T08:00:26.247Z,35.08
2023-01-17T08:01:47.767Z,33.05
2023-01-17T08:02:49.936Z,36.47
2023-01-17T08:03:54.780Z,37.90
2023-01-17T08:04:56.569Z,30.15
2023-01-17T08:05:59.635Z,31.33
2023-01-17T08:07:02.004Z,29.70
2023-01-17T08:08:04.985Z,29.17
2023-01-17T08:09:06.964Z,26.02
2023-01-17T08:10:17.789Z,26.60
2023-01-17T08:11:20.571Z,23.13
2023-01-17T08:12:22.533Z,24.63
2023-01-17T08:13:28.951Z,25.73
2023-01-17T08:14:32.484Z,25.17
2023-01-17T08:15:34.300Z,26.65
2023-01-17T08:16:38.095Z,26.73
2023-01-17T08:17:39.892Z,26.73
2023-01-17T08:18:42.774Z,27.17
2023-01-17T08:19:44.855Z,27.92
2023-01-17T08:20:47.637Z,24.95
2023-01-17T08:21:49.865Z,27.00
2023-01-17T08:22:56.468Z,27.08
2023-01-17T08:23:58.234Z,24.65
2023-01-17T08:25:01.241Z,27.30
2023-01-17T08:26:04.072Z,31.05
2023-01-17T08:27:05.901Z,33.70
2023-01-17T08:28:08.732Z,46.78
2023-01-17T08:29:13.104Z,48.20
2023-01-17T08:30:15.099Z,51.40
2023-01-17T08:31:19.842Z,45.95
2023-01-17T08:32:22.014Z,45.83
2023-01-17T08:33:25.005Z,44.80
2023-01-17T08:34:27.833Z,45.85
2023-01-17T08:35:29.633Z,46.53
2023-01-17T08:36:32.520Z,47.25
2023-01-17T08:37:34.758Z,42.78
2023-01-17T08:38:38.100Z,47.70
2023-01-17T08:39:39.879Z,44.28
2023-01-17T08:40:43.209Z,48.60
2023-01-17T08:41:46.028Z,33.40
2023-01-17T08:42:54.404Z,29.75
2023-01-17T08:43:57.563Z,31.30
2023-01-17T08:45:00.857Z,32.45
2023-01-17T08:46:03.630Z,30.70
2023-01-17T08:47:06.723Z,32.00
2023-01-17T08:48:09.930Z,33.05
2023-01-17T08:49:13.475Z,33.30
2023-01-17T08:50:20.498Z,34.63
2023-01-17T08:51:24.848Z,36.25
2023-01-17T08:52:28.067Z,36.47
2023-01-17T08:53:31.394Z,35.17
2023-01-17T08:54:34.184Z,34.42
2023-01-17T08:55:39.953Z,33.00
2023-01-17T08:56:43.575Z,31.90
2023-01-17T08:57:45.350Z,30.25
2023-01-17T08:58:48.149Z,28.35
2023-01-17T08:59:51.345Z,29.92
2023-01-17T09:00:55.572Z,29.95
2023-01-17T09:02:01.224Z,29.60
2023-01-17T09:03:04.441Z,28.30
2023-01-17T09:04:06.274Z,28.20
2023-01-17T09:05:09.426Z,28.50
2023-01-17T09:06:14.307Z,26.30
2023-01-17T09:07:17.346Z,27.15
2023-01-17T09:08:20.084Z,26.42
2023-01-17T09:09:23.452Z,31.80
2023-01-17T09:10:25.305Z,29.25
2023-01-17T09:11:28.063Z,29.15
2023-01-17T09:12:33.095Z,29.63
2023-01-17T09:13:35.404Z,29.50
2023-01-17T09:14:38.764Z,32.08
2023-01-17T09:15:41.839Z,34.28
2023-01-17T09:16:46.120Z,37.38
2023-01-17T09:17:48.975Z,37.70
2023-01-17T09:18:53.856Z,34.15
2023-01-17T09:19:56.667Z,32.15
2023-01-17T09:20:59.980Z,32.05
2023-01-17T09:22:02.962Z,30.67
2023-01-17T09:23:04.759Z,31.70
2023-01-17T09:24:07.882Z,31.77
2023-01-17T09:25:10.437Z,29.42
2023-01-17T09:26:19.295Z,30.02
2023-01-17T09:27:22.065Z,29.90
2023-01-17T09:28:25.339Z,29.80
2023-01-17T09:29:27.133Z,30.30
2023-01-17T09:30:29.938Z,30.45
2023-01-17T09:31:31.872Z,29.17
2023-01-17T09:32:36.181Z,31.27
2023-01-17T09:33:38.049Z,28.52
2023-01-17T09:34:40.874Z,29.42
2023-01-17T09:35:42.738Z,29.88
2023-01-17T09:36:45.763Z,31.90
2023-01-17T09:37:49.349Z,29.00
2023-01-17T09:38:57.112Z,30.33
2023-01-17T09:39:59.868Z,29.23
2023-01-17T09:41:02.853Z,29.52
2023-01-17T09:42:18.578Z,29.98
2023-01-17T09:43:25.535Z,29.40
2023-01-17T09:44:29.931Z,29.73
2023-01-17T09:45:34.562Z,27.85
2023-01-17T09:46:40.988Z,28.05
2023-01-17T09:47:47.649Z,33.17
2023-01-17T09:48:59.731Z,30.80
2023-01-17T09:50:15.402Z,29.17
2023-01-17T09:51:22.159Z,31.38
2023-01-17T09:52:26.146Z,27.50
2023-01-17T09:53:32.549Z,24.88
2023-01-17T09:54:40.003Z,24.50
2023-01-17T09:55:44.124Z,25.05
2023-01-17T09:56:50.604Z,24.17
2023-01-17T09:58:00.866Z,24.15
2023-01-17T09:59:12.091Z,23.70
2023-01-17T10:00:27.473Z,25.50
2023-01-17T10:01:36.176Z,23.65
2023-01-17T10:02:49.130Z,23.60
2023-01-17T10:04:05.999Z,22.73
2023-01-17T10:05:30.938Z,23.80
2023-01-17T10:06:44.292Z,21.77
2023-01-17T10:07:56.129Z,21.15
2023-01-17T10:09:24.669Z,21.42
2023-01-17T10:10:34.573Z,20.08
2023-01-17T10:11:47.053Z,18.02
2023-01-17T10:12:56.141Z,19.90
2023-01-17T10:14:07.360Z,18.77
2023-01-17T10:15:27.996Z,19.35
2023-01-17T10:16:38.991Z,17.95
2023-01-17T10:17:50.244Z,20.05
2023-01-17T10:19:12.523Z,20.70
2023-01-17T10:20:34.066Z,19.65
2023-01-17T10:21:49.462Z,17.80
2023-01-17T10:23:03.823Z,18.80
2023-01-17T10:24:25.826Z,16.60
2023-01-17T10:25:44.745Z,17.38
2023-01-17T10:26:49.910Z,17.25
2023-01-17T10:27:57.041Z,15.82
2023-01-17T10:29:02.280Z,15.52
2023-01-17T10:30:17.312Z,13.65
2023-01-17T10:31:23.287Z,13.00
2023-01-17T10:32:29.099Z,13.35
2023-01-17T10:33:40.772Z,14.32
2023-01-17T10:34:45.410Z,13.30
2023-01-17T10:35:56.943Z,13.82
2023-01-17T10:37:02.006Z,15.40
2023-01-17T10:38:07.111Z,12.18
2023-01-17T10:39:16.371Z,13.23
2023-01-17T10:40:24.225Z,12.57
2023-01-17T10:41:30.667Z,13.05
2023-01-17T10:42:42.269Z,10.57
2023-01-17T10:43:49.289Z,10.93
2023-01-17T10:44:56.993Z,10.85
2023-01-17T10:45:58.853Z,10.57
2023-01-17T10:47:08.449Z,9.60
2023-01-17T10:48:16.020Z,8.20
2023-01-17T10:49:23.318Z,7.20
2023-01-17T10:50:26.478Z,8.30
2023-01-17T10:51:43.728Z,7.43
2023-01-17T10:52:52.699Z,8.95
2023-01-17T10:54:04.110Z,8.45
2023-01-17T10:55:13.051Z,7.15
2023-01-17T10:56:17.376Z,7.78
2023-01-17T10:57:22.240Z,7.20
2023-01-17T10:58:25.193Z,6.70
2023-01-17T10:59:30.548Z,6.95
2023-01-17T11:00:43.794Z,5.90
2023-01-17T11:01:46.760Z,5.90
2023-01-17T11:02:50.765Z,6.60
2023-01-17T11:03:55.303Z,6.50
2023-01-17T11:05:05.686Z,6.13
2023-01-17T11:06:15.395Z,5.90
2023-01-17T11:07:19.824Z,6.30
2023-01-17T11:08:22.737Z,5.82
2023-01-17T11:09:40.781Z,6.22
2023-01-17T11:10:44.986Z,5.82
2023-01-17T11:11:49.459Z,5.75
2023-01-17T11:12:52.418Z,5.95
2023-01-17T11:13:55.008Z,5.88
2023-01-17T11:15:02.401Z,5.32
2023-01-17T11:16:08.283Z,6.40
2023-01-17T11:17:12.234Z,5.55
2023-01-17T11:18:16.179Z,5.88
2023-01-17T11:19:26.611Z,5.78
2023-01-17T11:20:34.435Z,5.88
2023-01-17T11:21:40.084Z,5.43
2023-01-17T11:22:44.923Z,5.20
2023-01-17T11:23:48.527Z,6.47
2023-01-17T11:24:53.140Z,5.10
2023-01-17T11:25:58.076Z,4.95
2023-01-17T11:27:00.106Z,5.50
2023-01-17T11:28:05.955Z,5.60
2023-01-17T11:29:15.304Z,5.13
2023-01-17T11:30:19.974Z,5.13
2023-01-17T11:31:27.349Z,5.47
2023-01-17T11:32:32.706Z,4.93
2023-01-17T11:33:45.046Z,5.63
2023-01-17T11:35:06.634Z,5.40
2023-01-17T11:36:17.549Z,5.35
2023-01-17T11:37:22.787Z,4.50
2023-01-17T11:38:25.962Z,5.05
2023-01-17T11:39:28.943Z,5.30
2023-01-17T11:40:33.616Z,5.05
2023-01-17T11:41:37.889Z,4.60
2023-01-17T11:42:39.731Z,5.03
2023-01-17T11:43:51.651Z,4.97
2023-01-17T11:44:54.947Z,5.15
2023-01-17T11:46:06.097Z,4.82
2023-01-17T11:47:18.902Z,5.03
2023-01-17T11:48:21.931Z,4.50
2023-01-17T11:49:26.665Z,4.88
2023-01-17T11:50:29.153Z,4.25
2023-01-17T11:51:35.017Z,4.53
2023-01-17T11:52:39.074Z,4.93
2023-01-17T11:53:47.007Z,4.30
2023-01-17T11:54:50.913Z,6.10
2023-01-17T11:55:55.564Z,6.05
2023-01-17T11:56:58.578Z,5.53
2023-01-17T11:58:00.356Z,3.97
2023-01-17T11:59:17.457Z,4.70
2023-01-17T12:00:24.385Z,4.43
2023-01-17T12:01:34.865Z,4.65
2023-01-17T12:02:52.162Z,7.07
2023-01-17T12:04:18.266Z,5.22
2023-01-17T12:05:33.187Z,4.93
2023-01-17T12:06:56.763Z,4.63
2023-01-17T12:08:08.345Z,4.78
2023-01-17T12:09:22.853Z,4.68
2023-01-17T12:10:30.580Z,3.85
2023-01-17T12:12:00.289Z,4.07
2023-01-17T12:13:29.168Z,4.05
2023-01-17T12:14:37.556Z,4.07
2023-01-17T12:15:52.007Z,3.65
2023-01-17T12:17:01.738Z,4.38
2023-01-17T12:18:18.901Z,4.75
2023-01-17T12:19:32.334Z,4.63
2023-01-17T12:20:41.462Z,5.18
2023-01-17T12:21:50.976Z,4.60
2023-01-17T12:23:14.150Z,4.35
2023-01-17T12:24:31.906Z,5.50
2023-01-17T12:25:49.031Z,5.15
2023-01-17T12:26:57.813Z,5.97
2023-01-17T12:28:10.027Z,3.72
2023-01-17T12:29:44.137Z,4.35
2023-01-17T12:30:59.232Z,3.78
2023-01-17T12:32:12.946Z,3.53
2023-01-17T12:33:20.012Z,3.80
2023-01-17T12:34:25.721Z,6.53
2023-01-17T12:35:32.444Z,4.45
2023-01-17T12:36:41.553Z,3.33
2023-01-17T12:37:52.666Z,3.45
2023-01-17T12:39:02.484Z,3.55
2023-01-17T12:40:14.782Z,3.80
2023-01-17T12:41:20.931Z,3.40
2023-01-17T12:42:25.442Z,5.18
2023-01-17T12:43:32.127Z,3.55
2023-01-17T12:44:42.645Z,4.45
2023-01-17T12:45:46.689Z,4.90
2023-01-17T12:46:51.920Z,4.78
2023-01-17T12:48:00.044Z,3.80
2023-01-17T12:49:05.615Z,3.10
2023-01-17T12:50:19.276Z,4.13
2023-01-17T12:51:27.714Z,3.25
2023-01-17T12:52:42.483Z,3.42
2023-01-17T12:53:52.526Z,2.72
2023-01-17T12:54:57.905Z,5.43
2023-01-17T12:56:04.965Z,3.30
2023-01-17T12:57:13.882Z,3.20
2023-01-17T12:58:21.322Z,6.00
2023-01-17T12:59:27.450Z,3.20
2023-01-17T13:00:32.315Z,3.47
2023-01-17T13:01:39.635Z,2.70
2023-01-17T13:02:47.415Z,4.55
2023-01-17T13:04:00.565Z,3.50
2023-01-17T13:05:07.655Z,3.10
2023-01-17T13:06:16.158Z,3.10
2023-01-17T13:07:25.487Z,3.08
2023-01-17T13:08:34.257Z,2.90
2023-01-17T13:09:43.901Z,2.92
2023-01-17T13:10:51.222Z,3.08
2023-01-17T13:11:57.579Z,3.08
2023-01-17T13:13:03.767Z,5.18
2023-01-17T13:14:09.913Z,2.80
2023-01-17T13:15:14.849Z,3.15
2023-01-17T13:16:21.976Z,2.60
2023-01-17T13:17:27.348Z,2.92
2023-01-17T13:18:33.178Z,2.70
2023-01-17T13:19:43.585Z,2.92
2023-01-17T13:21:06.101Z,3.20
2023-01-17T13:22:17.197Z,2.50
2023-01-17T13:23:28.699Z,3.05
2023-01-17T13:24:41.492Z,5.18
2023-01-17T13:25:45.941Z,5.57
2023-01-17T13:27:25.946Z,2.65
2023-01-17T13:28:37.489Z,2.80
2023-01-17T13:29:48.978Z,4.07
2023-01-17T13:31:09.975Z,3.08
2023-01-17T13:32:25.689Z,2.50
2023-01-17T13:33:35.661Z,3.05
2023-01-17T13:34:53.895Z,5.13
2023-01-17T13:36:07.012Z,4.40
2023-01-17T13:37:21.685Z,3.28
2023-01-17T13:38:35.813Z,2.70
2023-01-17T13:39:55.239Z,8.45
2023-01-17T13:41:01.311Z,2.70
2023-01-17T13:42:10.918Z,2.83
2023-01-17T13:43:15.034Z,3.42
2023-01-17T13:44:23.132Z,2.70
2023-01-17T13:45:28.611Z,2.90
2023-01-17T13:46:31.485Z,3.45
2023-01-17T13:47:42.262Z,3.30
2023-01-17T13:48:44.982Z,2.92
2023-01-17T13:49:49.442Z,2.63
2023-01-17T13:50:55.479Z,2.83
2023-01-17T13:52:02.815Z,2.95
2023-01-17T13:53:38.769Z,3.30
2023-01-17T13:54:45.790Z,5.53
2023-01-17T13:55:53.207Z,2.85
2023-01-17T13:57:44.058Z,2.88
2023-01-17T13:58:58.236Z,2.65
2023-01-17T14:00:31.770Z,2.90
2023-01-17T14:01:53.585Z,2.50
2023-01-17T14:02:56.452Z,2.72
2023-01-17T14:04:06.361Z,2.72
2023-01-17T14:05:13.366Z,3.42
2023-01-17T14:06:35.143Z,2.90
2023-01-17T14:07:46.057Z,3.25
2023-01-17T14:08:48.281Z,3.22
2023-01-17T14:09:51.563Z,2.85
2023-01-17T14:10:55.102Z,3.35
2023-01-17T14:12:00.135Z,3.50
2023-01-17T14:13:04.991Z,2.70
2023-01-17T14:14:50.544Z,2.75
2023-01-17T14:15:53.827Z,2.65
2023-01-17T14:16:55.868Z,3.58
2023-01-17T14:18:00.363Z,3.42
2023-01-17T14:19:02.418Z,3.50
2023-01-17T14:20:48.857Z,3.67
2023-01-17T14:21:52.037Z,3.28
2023-01-17T14:22:55.559Z,3.55
2023-01-17T14:24:03.799Z,3.20
2023-01-17T14:25:14.965Z,3.58
2023-01-17T14:26:29.980Z,3.10
2023-01-17T14:27:35.219Z,3.20
2023-01-17T14:28:37.109Z,3.30
2023-01-17T14:29:59.009Z,2.88
2023-01-17T14:31:03.073Z,3.05